sensor_id;sensor_type;location;lat;lon;timestamp;pressure;altitude;pressure_sealevel;temperature;humidity
19236;BME280;9752;54.270;12.470;2024-01-11T00:00:50;103574.56;;;0.65;100.00
19236;BME280;9752;54.270;12.470;2024-01-11T00:05:52;103572.38;;;0.73;100.00
19236;BME280;9752;54.270;12.470;2024-01-11T00:10:55;103558.28;;;0.64;100.00
19236;BME280;9752;54.270;12.470;2024-01-11T00:15:56;103552.75;;;0.61;100.00
19236;BME280;9752;54.270;12.470;2024-01-11T00:20:58;103575.53;;;0.54;100.00
19236;BME280;9752;54.270;12.470;2024-01-11T00:26:01;103572.00;;;0.65;100.00
19236;BME280;9752;54.270;12.470;2024-01-11T00:31:03;103578.97;;;0.60;100.00
19236;BME280;9752;54.270;12.470;2024-01-11T00:36:05;103563.72;;;0.49;100.00
19236;BME280;9752;54.270;12.470;2024-01-11T00:41:08;103566.97;;;0.53;100.00
19236;BME280;9752;54.270;12.470;2024-01-11T00:46:09;103580.16;;;0.56;100.00
19236;BME280;9752;54.270;12.470;2024-01-11T00:51:11;103576.94;;;0.52;100.00
19236;BME280;9752;54.270;12.470;2024-01-11T00:56:17;103589.00;;;0.53;100.00
19236;BME280;9752;54.270;12.470;2024-01-11T01:01:19;103597.22;;;0.39;100.00
19236;BME280;9752;54.270;12.470;2024-01-11T01:06:21;103603.66;;;0.48;100.00
19236;BME280;9752;54.270;12.470;2024-01-11T01:11:24;103587.19;;;0.46;100.00
19236;BME280;9752;54.270;12.470;2024-01-11T01:16:26;103604.81;;;0.50;100.00
19236;BME280;9752;54.270;12.470;2024-01-11T01:21:28;103618.06;;;0.48;100.00
19236;BME280;9752;54.270;12.470;2024-01-11T01:26:30;103619.16;;;0.61;100.00
19236;BME280;9752;54.270;12.470;2024-01-11T01:31:32;103614.72;;;0.60;100.00
19236;BME280;9752;54.270;12.470;2024-01-11T01:36:37;103619.63;;;0.53;100.00
19236;BME280;9752;54.270;12.470;2024-01-11T01:41:40;103615.69;;;0.55;100.00
19236;BME280;9752;54.270;12.470;2024-01-11T01:46:42;103614.72;;;0.60;100.00
19236;BME280;9752;54.270;12.470;2024-01-11T01:51:43;103609.91;;;0.50;100.00
19236;BME280;9752;54.270;12.470;2024-01-11T01:56:47;103616.81;;;0.63;100.00
19236;BME280;9752;54.270;12.470;2024-01-11T02:01:49;103593.59;;;0.61;100.00
19236;BME280;9752;54.270;12.470;2024-01-11T02:06:52;103619.13;;;0.67;100.00
19236;BME280;9752;54.270;12.470;2024-01-11T02:11:56;103602.91;;;0.55;100.00
19236;BME280;9752;54.270;12.470;2024-01-11T02:16:59;103634.75;;;0.57;100.00
19236;BME280;9752;54.270;12.470;2024-01-11T02:22:07;103614.66;;;0.71;100.00
19236;BME280;9752;54.270;12.470;2024-01-11T02:27:11;103601.38;;;0.74;100.00
19236;BME280;9752;54.270;12.470;2024-01-11T02:32:12;103585.25;;;0.56;100.00
19236;BME280;9752;54.270;12.470;2024-01-11T02:37:14;103589.91;;;0.59;100.00
19236;BME280;9752;54.270;12.470;2024-01-11T02:42:17;103595.81;;;0.76;100.00
19236;BME280;9752;54.270;12.470;2024-01-11T02:47:19;103592.66;;;0.61;100.00
19236;BME280;9752;54.270;12.470;2024-01-11T02:52:20;103579.75;;;0.48;100.00
19236;BME280;9752;54.270;12.470;2024-01-11T02:57:23;103590.34;;;0.62;100.00
19236;BME280;9752;54.270;12.470;2024-01-11T03:02:25;103612.91;;;0.59;100.00
19236;BME280;9752;54.270;12.470;2024-01-11T03:07:26;103616.81;;;0.63;100.00
19236;BME280;9752;54.270;12.470;2024-01-11T03:12:30;103605.69;;;0.56;100.00
19236;BME280;9752;54.270;12.470;2024-01-11T03:17:32;103607.53;;;0.63;100.00
19236;BME280;9752;54.270;12.470;2024-01-11T03:22:34;103596.28;;;0.74;100.00
19236;BME280;9752;54.270;12.470;2024-01-11T03:27:37;103595.63;;;0.69;100.00
19236;BME280;9752;54.270;12.470;2024-01-11T03:32:38;103587.22;;;0.41;100.00
19236;BME280;9752;54.270;12.470;2024-01-11T03:37:40;103592.97;;;0.51;100.00
19236;BME280;9752;54.270;12.470;2024-01-11T03:42:43;103589.94;;;0.53;100.00
19236;BME280;9752;54.270;12.470;2024-01-11T03:47:45;103588.25;;;0.65;100.00
19236;BME280;9752;54.270;12.470;2024-01-11T03:52:46;103579.97;;;0.49;100.00
19236;BME280;9752;54.270;12.470;2024-01-11T03:57:49;103597.81;;;0.55;100.00
19236;BME280;9752;54.270;12.470;2024-01-11T04:02:51;103620.97;;;0.62;100.00
19236;BME280;9752;54.270;12.470;2024-01-11T04:07:53;103624.75;;;0.53;100.00
19236;BME280;9752;54.270;12.470;2024-01-11T04:12:56;103628.97;;;0.47;100.00
19236;BME280;9752;54.270;12.470;2024-01-11T04:17:58;103625.25;;;0.50;100.00
19236;BME280;9752;54.270;12.470;2024-01-11T04:23:00;103648.13;;;0.67;100.00
19236;BME280;9752;54.270;12.470;2024-01-11T04:28:03;103669.56;;;0.92;100.00
19236;BME280;9752;54.270;12.470;2024-01-11T04:33:05;103672.47;;;1.06;100.00
19236;BME280;9752;54.270;12.470;2024-01-11T04:38:07;103651.41;;;0.96;100.00
19236;BME280;9752;54.270;12.470;2024-01-11T04:43:10;103638.03;;;0.86;100.00
19236;BME280;9752;54.270;12.470;2024-01-11T04:48:11;103645.97;;;0.82;100.00
19236;BME280;9752;54.270;12.470;2024-01-11T04:53:13;103631.09;;;0.79;100.00
19236;BME280;9752;54.270;12.470;2024-01-11T04:58:16;103634.91;;;0.64;100.00
19236;BME280;9752;54.270;12.470;2024-01-11T05:03:17;103634.47;;;0.61;100.00
19236;BME280;9752;54.270;12.470;2024-01-11T05:08:19;103622.41;;;0.54;100.00
19236;BME280;9752;54.270;12.470;2024-01-11T05:13:22;103614.09;;;0.50;100.00
19236;BME280;9752;54.270;12.470;2024-01-11T05:18:24;103630.56;;;0.52;100.00
19236;BME280;9752;54.270;12.470;2024-01-11T05:23:25;103610.91;;;0.39;100.00
19236;BME280;9752;54.270;12.470;2024-01-11T05:28:28;103609.34;;;0.29;100.00
19236;BME280;9752;54.270;12.470;2024-01-11T05:33:30;103590.16;;;0.14;100.00
19236;BME280;9752;54.270;12.470;2024-01-11T05:38:32;103590.72;;;-0.06;100.00
19236;BME280;9752;54.270;12.470;2024-01-11T05:43:37;103601.84;;;-0.05;100.00
19236;BME280;9752;54.270;12.470;2024-01-11T05:48:39;103626.34;;;0.06;100.00
19236;BME280;9752;54.270;12.470;2024-01-11T05:53:41;103625.47;;;-0.06;100.00
19236;BME280;9752;54.270;12.470;2024-01-11T05:58:44;103625.41;;;0.11;100.00
19236;BME280;9752;54.270;12.470;2024-01-11T06:03:45;103604.78;;;0.04;100.00
19236;BME280;9752;54.270;12.470;2024-01-11T06:08:47;103575.41;;;-0.06;100.00
19236;BME280;9752;54.270;12.470;2024-01-11T06:13:50;103579.47;;;0.11;100.00
19236;BME280;9752;54.270;12.470;2024-01-11T06:18:52;103597.25;;;0.33;100.00
19236;BME280;9752;54.270;12.470;2024-01-11T06:23:54;103592.34;;;0.41;100.00
19236;BME280;9752;54.270;12.470;2024-01-11T06:28:57;103593.84;;;0.63;100.00
19236;BME280;9752;54.270;12.470;2024-01-11T06:33:59;103597.72;;;0.66;100.00
19236;BME280;9752;54.270;12.470;2024-01-11T06:39:01;103597.19;;;0.80;100.00
19236;BME280;9752;54.270;12.470;2024-01-11T06:44:05;103588.91;;;1.00;100.00
19236;BME280;9752;54.270;12.470;2024-01-11T06:49:07;103578.44;;;0.98;100.00
19236;BME280;9752;54.270;12.470;2024-01-11T06:54:09;103600.13;;;1.19;100.00
19236;BME280;9752;54.270;12.470;2024-01-11T06:59:12;103605.13;;;1.30;100.00
19236;BME280;9752;54.270;12.470;2024-01-11T07:04:13;103601.00;;;1.25;100.00
19236;BME280;9752;54.270;12.470;2024-01-11T07:09:15;103613.91;;;1.38;100.00
19236;BME280;9752;54.270;12.470;2024-01-11T07:14:19;103608.16;;;1.33;100.00
19236;BME280;9752;54.270;12.470;2024-01-11T07:19:20;103591.09;;;1.39;100.00
19236;BME280;9752;54.270;12.470;2024-01-11T07:24:22;103569.06;;;1.34;100.00
19236;BME280;9752;54.270;12.470;2024-01-11T07:29:25;103560.63;;;1.41;100.00
19236;BME280;9752;54.270;12.470;2024-01-11T07:34:27;103567.19;;;1.39;100.00
19236;BME280;9752;54.270;12.470;2024-01-11T07:39:28;103563.63;;;1.44;100.00
19236;BME280;9752;54.270;12.470;2024-01-11T07:44:32;103558.16;;;1.53;100.00
19236;BME280;9752;54.270;12.470;2024-01-11T07:49:34;103555.66;;;1.48;100.00
19236;BME280;9752;54.270;12.470;2024-01-11T07:54:35;103570.19;;;1.60;100.00
19236;BME280;9752;54.270;12.470;2024-01-11T07:59:39;103570.53;;;1.50;100.00
19236;BME280;9752;54.270;12.470;2024-01-11T08:04:41;103588.84;;;1.53;100.00
19236;BME280;9752;54.270;12.470;2024-01-11T08:09:42;103588.03;;;1.66;100.00
19236;BME280;9752;54.270;12.470;2024-01-11T08:14:46;103582.13;;;1.72;100.00
19236;BME280;9752;54.270;12.470;2024-01-11T08:19:48;103588.03;;;1.66;100.00
19236;BME280;9752;54.270;12.470;2024-01-11T08:24:50;103582.34;;;1.74;100.00
19236;BME280;9752;54.270;12.470;2024-01-11T08:29:53;103580.88;;;1.82;100.00
19236;BME280;9752;54.270;12.470;2024-01-11T08:34:56;103574.31;;;1.84;100.00
19236;BME280;9752;54.270;12.470;2024-01-11T08:39:58;103570.50;;;1.93;100.00
19236;BME280;9752;54.270;12.470;2024-01-11T08:45:01;103557.84;;;2.00;100.00
19236;BME280;9752;54.270;12.470;2024-01-11T08:50:07;103552.34;;;2.10;100.00
19236;BME280;9752;54.270;12.470;2024-01-11T08:55:09;103551.59;;;2.17;100.00
19236;BME280;9752;54.270;12.470;2024-01-11T09:00:15;103526.91;;;2.17;100.00
19236;BME280;9752;54.270;12.470;2024-01-11T09:05:18;103516.50;;;2.28;100.00
19236;BME280;9752;54.270;12.470;2024-01-11T09:10:22;103488.84;;;2.39;100.00
19236;BME280;9752;54.270;12.470;2024-01-11T09:15:25;103488.28;;;2.47;100.00
19236;BME280;9752;54.270;12.470;2024-01-11T09:20:27;103503.34;;;2.51;100.00
19236;BME280;9752;54.270;12.470;2024-01-11T09:25:28;103474.50;;;2.46;100.00
19236;BME280;9752;54.270;12.470;2024-01-11T09:30:31;103478.25;;;2.74;100.00
19236;BME280;9752;54.270;12.470;2024-01-11T09:35:33;103487.78;;;2.88;100.00
19236;BME280;9752;54.270;12.470;2024-01-11T09:40:35;103460.50;;;2.63;100.00
19236;BME280;9752;54.270;12.470;2024-01-11T09:45:38;103437.84;;;2.79;100.00
19236;BME280;9752;54.270;12.470;2024-01-11T09:50:40;103450.47;;;2.90;100.00
19236;BME280;9752;54.270;12.470;2024-01-11T09:55:41;103453.88;;;2.96;100.00
19236;BME280;9752;54.270;12.470;2024-01-11T10:00:44;103439.19;;;2.82;100.00
19236;BME280;9752;54.270;12.470;2024-01-11T10:05:49;103441.16;;;2.90;100.00
19236;BME280;9752;54.270;12.470;2024-01-11T10:10:51;103423.81;;;3.08;100.00
19236;BME280;9752;54.270;12.470;2024-01-11T10:16:05;103415.59;;;3.10;100.00
19236;BME280;9752;54.270;12.470;2024-01-11T10:21:07;103415.69;;;3.18;100.00
19236;BME280;9752;54.270;12.470;2024-01-11T10:26:09;103395.56;;;3.21;100.00
19236;BME280;9752;54.270;12.470;2024-01-11T10:31:13;103385.44;;;3.02;100.00
19236;BME280;9752;54.270;12.470;2024-01-11T10:36:15;103369.94;;;3.21;100.00
19236;BME280;9752;54.270;12.470;2024-01-11T10:41:18;103338.31;;;3.15;100.00
19236;BME280;9752;54.270;12.470;2024-01-11T10:46:26;103283.75;;;3.16;100.00
19236;BME280;9752;54.270;12.470;2024-01-11T10:51:31;103262.38;;;3.02;100.00
19236;BME280;9752;54.270;12.470;2024-01-11T10:56:34;103248.38;;;3.33;100.00
19236;BME280;9752;54.270;12.470;2024-01-11T11:01:41;103244.03;;;3.39;100.00
19236;BME280;9752;54.270;12.470;2024-01-11T11:06:43;103228.56;;;3.52;100.00
19236;BME280;9752;54.270;12.470;2024-01-11T11:11:45;103215.72;;;3.25;100.00
19236;BME280;9752;54.270;12.470;2024-01-11T11:16:48;103227.03;;;3.40;100.00
19236;BME280;9752;54.270;12.470;2024-01-11T11:21:50;103217.28;;;3.17;100.00
19236;BME280;9752;54.270;12.470;2024-01-11T11:26:52;103219.19;;;3.25;100.00
19236;BME280;9752;54.270;12.470;2024-01-11T11:31:59;103212.94;;;3.03;100.00
19236;BME280;9752;54.270;12.470;2024-01-11T11:37:00;103200.91;;;2.89;100.00
19236;BME280;9752;54.270;12.470;2024-01-11T11:42:03;103202.38;;;3.07;100.00
19236;BME280;9752;54.270;12.470;2024-01-11T11:47:22;103194.84;;;3.09;100.00
19236;BME280;9752;54.270;12.470;2024-01-11T11:52:24;103208.78;;;2.91;100.00
19236;BME280;9752;54.270;12.470;2024-01-11T11:57:26;103199.25;;;2.90;100.00
19236;BME280;9752;54.270;12.470;2024-01-11T12:02:31;103203.75;;;2.98;100.00
19236;BME280;9752;54.270;12.470;2024-01-11T12:07:33;103206.16;;;2.84;100.00
19236;BME280;9752;54.270;12.470;2024-01-11T12:12:35;103200.31;;;2.85;100.00
19236;BME280;9752;54.270;12.470;2024-01-11T12:17:39;103193.41;;;2.91;100.00
19236;BME280;9752;54.270;12.470;2024-01-11T12:22:42;103175.00;;;3.01;100.00
19236;BME280;9752;54.270;12.470;2024-01-11T12:27:44;103184.34;;;3.00;100.00
19236;BME280;9752;54.270;12.470;2024-01-11T12:32:48;103194.19;;;2.97;100.00
19236;BME280;9752;54.270;12.470;2024-01-11T12:37:53;103181.38;;;2.97;100.00
19236;BME280;9752;54.270;12.470;2024-01-11T12:42:56;103175.91;;;3.01;100.00
19236;BME280;9752;54.270;12.470;2024-01-11T12:48:00;103169.09;;;2.95;100.00
19236;BME280;9752;54.270;12.470;2024-01-11T12:53:07;103168.81;;;2.86;100.00
19236;BME280;9752;54.270;12.470;2024-01-11T12:58:09;103151.72;;;2.99;100.00
19236;BME280;9752;54.270;12.470;2024-01-11T13:03:12;103163.97;;;2.95;100.00
19236;BME280;9752;54.270;12.470;2024-01-11T13:08:14;103172.91;;;2.91;100.00
19236;BME280;9752;54.270;12.470;2024-01-11T13:13:15;103174.84;;;2.86;100.00
19236;BME280;9752;54.270;12.470;2024-01-11T13:18:19;103155.66;;;2.90;100.00
19236;BME280;9752;54.270;12.470;2024-01-11T13:23:20;103181.72;;;2.93;100.00
19236;BME280;9752;54.270;12.470;2024-01-11T13:28:22;103168.31;;;2.88;100.00
19236;BME280;9752;54.270;12.470;2024-01-11T13:33:25;103150.69;;;2.84;100.00
19236;BME280;9752;54.270;12.470;2024-01-11T13:38:27;103157.25;;;2.82;100.00
19236;BME280;9752;54.270;12.470;2024-01-11T13:43:29;103150.09;;;2.80;100.00
19236;BME280;9752;54.270;12.470;2024-01-11T13:48:32;103144.91;;;2.72;100.00
19236;BME280;9752;54.270;12.470;2024-01-11T13:53:34;103151.34;;;2.76;100.00
19236;BME280;9752;54.270;12.470;2024-01-11T13:58:36;103153.13;;;2.70;100.00
19236;BME280;9752;54.270;12.470;2024-01-11T14:03:39;103167.69;;;2.64;100.00
19236;BME280;9752;54.270;12.470;2024-01-11T14:08:41;103168.41;;;2.63;100.00
19236;BME280;9752;54.270;12.470;2024-01-11T14:13:43;103175.63;;;2.52;100.00
19236;BME280;9752;54.270;12.470;2024-01-11T14:18:46;103174.19;;;2.54;100.00
19236;BME280;9752;54.270;12.470;2024-01-11T14:23:47;103175.09;;;2.55;100.00
19236;BME280;9752;54.270;12.470;2024-01-11T14:28:49;103185.06;;;2.46;100.00
19236;BME280;9752;54.270;12.470;2024-01-11T14:33:53;103190.72;;;2.44;100.00
19236;BME280;9752;54.270;12.470;2024-01-11T14:38:54;103198.63;;;2.32;100.00
19236;BME280;9752;54.270;12.470;2024-01-11T14:43:56;103201.41;;;2.21;100.00
19236;BME280;9752;54.270;12.470;2024-01-11T14:49:01;103204.50;;;2.06;100.00
19236;BME280;9752;54.270;12.470;2024-01-11T14:54:04;103203.59;;;1.92;100.00
19236;BME280;9752;54.270;12.470;2024-01-11T14:59:06;103213.09;;;1.93;100.00
19236;BME280;9752;54.270;12.470;2024-01-11T15:04:09;103216.91;;;1.90;100.00
19236;BME280;9752;54.270;12.470;2024-01-11T15:09:11;103217.00;;;1.84;100.00
19236;BME280;9752;54.270;12.470;2024-01-11T15:14:12;103237.44;;;1.71;100.00
19236;BME280;9752;54.270;12.470;2024-01-11T15:19:15;103239.00;;;1.77;100.00
19236;BME280;9752;54.270;12.470;2024-01-11T15:24:17;103244.59;;;1.74;100.00
19236;BME280;9752;54.270;12.470;2024-01-11T15:29:19;103253.94;;;1.73;100.00
19236;BME280;9752;54.270;12.470;2024-01-11T15:34:23;103250.53;;;1.54;100.00
19236;BME280;9752;54.270;12.470;2024-01-11T15:39:24;103250.53;;;1.54;100.00
19236;BME280;9752;54.270;12.470;2024-01-11T15:44:26;103254.91;;;1.55;100.00
19236;BME280;9752;54.270;12.470;2024-01-11T15:49:29;103257.53;;;1.50;100.00
19236;BME280;9752;54.270;12.470;2024-01-11T15:54:31;103261.34;;;1.46;100.00
19236;BME280;9752;54.270;12.470;2024-01-11T15:59:32;103272.06;;;1.44;100.00
19236;BME280;9752;54.270;12.470;2024-01-11T16:04:35;103282.06;;;1.42;100.00
19236;BME280;9752;54.270;12.470;2024-01-11T16:09:38;103276.44;;;1.32;100.00
19236;BME280;9752;54.270;12.470;2024-01-11T16:14:42;103291.63;;;1.25;100.00
19236;BME280;9752;54.270;12.470;2024-01-11T16:19:45;103284.56;;;1.16;100.00
19236;BME280;9752;54.270;12.470;2024-01-11T16:24:47;103290.41;;;0.97;100.00
19236;BME280;9752;54.270;12.470;2024-01-11T16:29:49;103293.88;;;0.79;100.00
19236;BME280;9752;54.270;12.470;2024-01-11T16:34:52;103292.94;;;0.60;100.00
19236;BME280;9752;54.270;12.470;2024-01-11T16:39:54;103339.47;;;0.52;100.00
19236;BME280;9752;54.270;12.470;2024-01-11T16:44:56;103334.63;;;0.48;100.00
19236;BME280;9752;54.270;12.470;2024-01-11T16:49:59;103343.53;;;0.38;100.00
19236;BME280;9752;54.270;12.470;2024-01-11T16:55:01;103355.69;;;0.28;100.00
19236;BME280;9752;54.270;12.470;2024-01-11T17:00:04;103358.28;;;0.23;100.00
19236;BME280;9752;54.270;12.470;2024-01-11T17:05:09;103374.47;;;0.53;100.00
19236;BME280;9752;54.270;12.470;2024-01-11T17:10:10;103389.41;;;0.50;100.00
19236;BME280;9752;54.270;12.470;2024-01-11T17:15:12;103393.59;;;0.44;100.00
19236;BME280;9752;54.270;12.470;2024-01-11T17:20:16;103392.00;;;0.44;100.00
19236;BME280;9752;54.270;12.470;2024-01-11T17:25:18;103419.25;;;0.32;100.00
19236;BME280;9752;54.270;12.470;2024-01-11T17:30:20;103434.03;;;0.41;100.00
19236;BME280;9752;54.270;12.470;2024-01-11T17:35:23;103441.19;;;0.19;100.00
19236;BME280;9752;54.270;12.470;2024-01-11T17:40:25;103483.25;;;0.04;100.00
19236;BME280;9752;54.270;12.470;2024-01-11T17:45:29;103485.44;;;-0.16;100.00
19236;BME280;9752;54.270;12.470;2024-01-11T17:50:32;103491.34;;;-0.34;100.00
19236;BME280;9752;54.270;12.470;2024-01-11T17:55:34;103487.81;;;-0.29;100.00
19236;BME280;9752;54.270;12.470;2024-01-11T18:00:36;103491.16;;;-0.47;100.00
19236;BME280;9752;54.270;12.470;2024-01-11T18:05:39;103499.16;;;-0.27;100.00
19236;BME280;9752;54.270;12.470;2024-01-11T18:10:41;103504.91;;;-0.11;100.00
19236;BME280;9752;54.270;12.470;2024-01-11T18:15:42;103502.72;;;-0.37;100.00
19236;BME280;9752;54.270;12.470;2024-01-11T18:20:46;103508.28;;;-0.46;100.00
19236;BME280;9752;54.270;12.470;2024-01-11T18:25:49;103506.69;;;-0.51;100.00
19236;BME280;9752;54.270;12.470;2024-01-11T18:30:51;103518.72;;;-0.50;100.00
19236;BME280;9752;54.270;12.470;2024-01-11T18:35:54;103530.50;;;-0.33;100.00
19236;BME280;9752;54.270;12.470;2024-01-11T18:40:56;103527.50;;;-0.42;100.00
19236;BME280;9752;54.270;12.470;2024-01-11T18:45:58;103529.69;;;-0.62;100.00
19236;BME280;9752;54.270;12.470;2024-01-11T18:51:02;103522.97;;;-0.67;100.00
19236;BME280;9752;54.270;12.470;2024-01-11T18:56:12;103534.78;;;-0.68;100.00
19236;BME280;9752;54.270;12.470;2024-01-11T19:01:13;103551.91;;;-0.55;100.00
19236;BME280;9752;54.270;12.470;2024-01-11T19:06:16;103560.28;;;-0.68;100.00
19236;BME280;9752;54.270;12.470;2024-01-11T19:11:18;103563.53;;;-1.08;100.00
19236;BME280;9752;54.270;12.470;2024-01-11T19:16:20;103560.28;;;-1.30;100.00
19236;BME280;9752;54.270;12.470;2024-01-11T19:21:23;103559.38;;;-1.08;100.00
19236;BME280;9752;54.270;12.470;2024-01-11T19:26:25;103558.91;;;-1.39;100.00
19236;BME280;9752;54.270;12.470;2024-01-11T19:31:26;103566.06;;;-1.59;100.00
19236;BME280;9752;54.270;12.470;2024-01-11T19:36:29;103578.81;;;-1.42;100.00
19236;BME280;9752;54.270;12.470;2024-01-11T19:41:31;103593.66;;;-0.89;100.00
19236;BME280;9752;54.270;12.470;2024-01-11T19:46:33;103605.91;;;-0.64;100.00
19236;BME280;9752;54.270;12.470;2024-01-11T19:51:36;103611.03;;;-0.98;100.00
19236;BME280;9752;54.270;12.470;2024-01-11T19:56:38;103615.59;;;-1.51;100.00
19236;BME280;9752;54.270;12.470;2024-01-11T20:01:39;103619.44;;;-1.76;100.00
19236;BME280;9752;54.270;12.470;2024-01-11T20:06:44;103613.56;;;-1.98;100.00
19236;BME280;9752;54.270;12.470;2024-01-11T20:11:46;103615.63;;;-2.01;100.00
19236;BME280;9752;54.270;12.470;2024-01-11T20:16:47;103622.63;;;-1.88;100.00
19236;BME280;9752;54.270;12.470;2024-01-11T20:21:50;103641.34;;;-1.93;100.00
19236;BME280;9752;54.270;12.470;2024-01-11T20:26:52;103647.22;;;-1.66;100.00
19236;BME280;9752;54.270;12.470;2024-01-11T20:31:54;103673.69;;;-1.43;100.00
19236;BME280;9752;54.270;12.470;2024-01-11T20:36:57;103669.03;;;-1.51;100.00
19236;BME280;9752;54.270;12.470;2024-01-11T20:41:59;103682.03;;;-1.33;100.00
19236;BME280;9752;54.270;12.470;2024-01-11T20:47:00;103678.28;;;-1.52;100.00
19236;BME280;9752;54.270;12.470;2024-01-11T20:52:04;103675.16;;;-1.83;100.00
19236;BME280;9752;54.270;12.470;2024-01-11T20:57:06;103659.19;;;-2.20;100.00
19236;BME280;9752;54.270;12.470;2024-01-11T21:02:07;103660.19;;;-2.14;100.00
19236;BME280;9752;54.270;12.470;2024-01-11T21:07:11;103658.88;;;-2.39;100.00
19236;BME280;9752;54.270;12.470;2024-01-11T21:12:13;103652.69;;;-2.29;100.00
19236;BME280;9752;54.270;12.470;2024-01-11T21:17:14;103660.63;;;-2.49;100.00
19236;BME280;9752;54.270;12.470;2024-01-11T21:22:18;103665.72;;;-2.49;100.00
19236;BME280;9752;54.270;12.470;2024-01-11T21:27:19;103658.72;;;-2.61;100.00
19236;BME280;9752;54.270;12.470;2024-01-11T21:32:21;103659.03;;;-2.48;100.00
19236;BME280;9752;54.270;12.470;2024-01-11T21:37:24;103657.34;;;-2.59;100.00
19236;BME280;9752;54.270;12.470;2024-01-11T21:42:26;103665.22;;;-2.58;100.00
19236;BME280;9752;54.270;12.470;2024-01-11T21:47:29;103682.25;;;-2.62;100.00
19236;BME280;9752;54.270;12.470;2024-01-11T21:52:32;103682.66;;;-2.70;100.00
19236;BME280;9752;54.270;12.470;2024-01-11T21:57:33;103670.00;;;-2.91;100.00
19236;BME280;9752;54.270;12.470;2024-01-11T22:02:35;103682.03;;;-2.31;100.00
19236;BME280;9752;54.270;12.470;2024-01-11T22:07:39;103674.66;;;-2.57;100.00
19236;BME280;9752;54.270;12.470;2024-01-11T22:12:40;103672.53;;;-2.65;100.00
19236;BME280;9752;54.270;12.470;2024-01-11T22:17:42;103672.59;;;-2.59;100.00
19236;BME280;9752;54.270;12.470;2024-01-11T22:22:45;103673.84;;;-2.72;100.00
19236;BME280;9752;54.270;12.470;2024-01-11T22:27:47;103683.97;;;-2.19;100.00
19236;BME280;9752;54.270;12.470;2024-01-11T22:32:49;103693.25;;;-2.46;100.00
19236;BME280;9752;54.270;12.470;2024-01-11T22:37:52;103688.69;;;-2.64;100.00
19236;BME280;9752;54.270;12.470;2024-01-11T22:42:54;103678.53;;;-2.64;100.00
19236;BME280;9752;54.270;12.470;2024-01-11T22:47:56;103677.97;;;-2.79;100.00
19236;BME280;9752;54.270;12.470;2024-01-11T22:52:59;103674.44;;;-2.85;100.00
19236;BME280;9752;54.270;12.470;2024-01-11T22:58:01;103690.38;;;-2.86;100.00
19236;BME280;9752;54.270;12.470;2024-01-11T23:03:04;103699.56;;;-2.92;100.00
19236;BME280;9752;54.270;12.470;2024-01-11T23:08:07;103695.00;;;-2.83;100.00
19236;BME280;9752;54.270;12.470;2024-01-11T23:13:08;103692.16;;;-2.90;100.00
19236;BME280;9752;54.270;12.470;2024-01-11T23:18:10;103690.06;;;-2.93;100.00
19236;BME280;9752;54.270;12.470;2024-01-11T23:23:13;103682.88;;;-2.96;100.00
19236;BME280;9752;54.270;12.470;2024-01-11T23:28:15;103678.13;;;-3.09;100.00
19236;BME280;9752;54.270;12.470;2024-01-11T23:33:16;103675.81;;;-3.08;100.00
19236;BME280;9752;54.270;12.470;2024-01-11T23:38:19;103670.75;;;-3.08;100.00
19236;BME280;9752;54.270;12.470;2024-01-11T23:43:21;103671.25;;;-3.05;100.00
19236;BME280;9752;54.270;12.470;2024-01-11T23:48:23;103676.69;;;-3.13;100.00
19236;BME280;9752;54.270;12.470;2024-01-11T23:53:26;103675.78;;;-3.14;100.00
19236;BME280;9752;54.270;12.470;2024-01-11T23:58:27;103670.50;;;-3.09;100.00
